sensor_id;sensor_type;location;lat;lon;timestamp;P1;durP1;ratioP1;P2;durP2;ratioP2
20369;SDS011;10344;47.592;9.600;2023-04-25T00:00:28;4.18;;;3.20;;
20369;SDS011;10344;47.592;9.600;2023-04-25T00:02:54;3.97;;;2.90;;
20369;SDS011;10344;47.592;9.600;2023-04-25T00:05:21;3.65;;;3.10;;
20369;SDS011;10344;47.592;9.600;2023-04-25T00:07:48;3.10;;;2.80;;
20369;SDS011;10344;47.592;9.600;2023-04-25T00:10:14;3.45;;;3.15;;
20369;SDS011;10344;47.592;9.600;2023-04-25T00:12:40;3.93;;;2.80;;
20369;SDS011;10344;47.592;9.600;2023-04-25T00:15:07;3.15;;;2.65;;
20369;SDS011;10344;47.592;9.600;2023-04-25T00:17:33;2.75;;;2.55;;
20369;SDS011;10344;47.592;9.600;2023-04-25T00:20:00;2.80;;;2.60;;
20369;SDS011;10344;47.592;9.600;2023-04-25T00:22:25;3.47;;;2.88;;
20369;SDS011;10344;47.592;9.600;2023-04-25T00:24:51;3.20;;;2.90;;
20369;SDS011;10344;47.592;9.600;2023-04-25T00:27:18;3.20;;;2.90;;
20369;SDS011;10344;47.592;9.600;2023-04-25T00:29:44;3.47;;;2.90;;
20369;SDS011;10344;47.592;9.600;2023-04-25T00:32:10;2.80;;;2.60;;
20369;SDS011;10344;47.592;9.600;2023-04-25T00:34:36;3.42;;;2.80;;
20369;SDS011;10344;47.592;9.600;2023-04-25T00:37:01;2.73;;;2.53;;
20369;SDS011;10344;47.592;9.600;2023-04-25T00:39:27;3.30;;;2.77;;
20369;SDS011;10344;47.592;9.600;2023-04-25T00:41:53;3.25;;;2.80;;
20369;SDS011;10344;47.592;9.600;2023-04-25T00:44:19;3.38;;;2.78;;
20369;SDS011;10344;47.592;9.600;2023-04-25T00:46:47;3.00;;;2.50;;
20369;SDS011;10344;47.592;9.600;2023-04-25T00:49:17;4.10;;;2.60;;
20369;SDS011;10344;47.592;9.600;2023-04-25T00:51:43;3.30;;;2.70;;
20369;SDS011;10344;47.592;9.600;2023-04-25T00:54:10;2.60;;;2.40;;
20369;SDS011;10344;47.592;9.600;2023-04-25T00:56:37;3.33;;;2.45;;
20369;SDS011;10344;47.592;9.600;2023-04-25T00:59:03;3.10;;;2.70;;
20369;SDS011;10344;47.592;9.600;2023-04-25T01:01:31;4.00;;;2.60;;
20369;SDS011;10344;47.592;9.600;2023-04-25T01:03:58;3.28;;;2.42;;
20369;SDS011;10344;47.592;9.600;2023-04-25T01:06:24;2.85;;;2.60;;
20369;SDS011;10344;47.592;9.600;2023-04-25T01:08:49;3.97;;;2.97;;
20369;SDS011;10344;47.592;9.600;2023-04-25T01:11:16;3.80;;;2.83;;
20369;SDS011;10344;47.592;9.600;2023-04-25T01:13:42;3.35;;;3.05;;
20369;SDS011;10344;47.592;9.600;2023-04-25T01:16:08;3.37;;;2.90;;
20369;SDS011;10344;47.592;9.600;2023-04-25T01:18:33;3.07;;;2.77;;
20369;SDS011;10344;47.592;9.600;2023-04-25T01:21:09;3.10;;;2.58;;
20369;SDS011;10344;47.592;9.600;2023-04-25T01:23:36;2.92;;;2.70;;
20369;SDS011;10344;47.592;9.600;2023-04-25T01:26:05;2.83;;;2.60;;
20369;SDS011;10344;47.592;9.600;2023-04-25T01:28:34;3.00;;;2.70;;
20369;SDS011;10344;47.592;9.600;2023-04-25T01:31:00;3.05;;;2.78;;
20369;SDS011;10344;47.592;9.600;2023-04-25T01:33:26;2.72;;;2.45;;
20369;SDS011;10344;47.592;9.600;2023-04-25T01:35:52;3.83;;;2.63;;
20369;SDS011;10344;47.592;9.600;2023-04-25T01:38:17;4.17;;;3.30;;
20369;SDS011;10344;47.592;9.600;2023-04-25T01:40:46;4.72;;;2.80;;
20369;SDS011;10344;47.592;9.600;2023-04-25T01:43:14;4.22;;;3.20;;
20369;SDS011;10344;47.592;9.600;2023-04-25T01:45:43;4.03;;;3.05;;
20369;SDS011;10344;47.592;9.600;2023-04-25T01:48:09;4.15;;;3.30;;
20369;SDS011;10344;47.592;9.600;2023-04-25T01:50:37;4.18;;;3.20;;
20369;SDS011;10344;47.592;9.600;2023-04-25T01:53:04;3.40;;;2.97;;
20369;SDS011;10344;47.592;9.600;2023-04-25T01:55:36;3.17;;;2.97;;
20369;SDS011;10344;47.592;9.600;2023-04-25T01:58:02;4.05;;;2.92;;
20369;SDS011;10344;47.592;9.600;2023-04-25T02:00:28;3.58;;;3.00;;
20369;SDS011;10344;47.592;9.600;2023-04-25T02:02:59;4.07;;;3.10;;
20369;SDS011;10344;47.592;9.600;2023-04-25T02:05:25;3.33;;;3.03;;
20369;SDS011;10344;47.592;9.600;2023-04-25T02:07:53;3.28;;;2.90;;
20369;SDS011;10344;47.592;9.600;2023-04-25T02:10:20;3.75;;;3.30;;
20369;SDS011;10344;47.592;9.600;2023-04-25T02:12:45;3.20;;;2.90;;
20369;SDS011;10344;47.592;9.600;2023-04-25T02:15:13;3.20;;;2.90;;
20369;SDS011;10344;47.592;9.600;2023-04-25T02:17:39;3.50;;;2.70;;
20369;SDS011;10344;47.592;9.600;2023-04-25T02:20:06;3.20;;;2.90;;
20369;SDS011;10344;47.592;9.600;2023-04-25T02:22:35;3.08;;;2.78;;
20369;SDS011;10344;47.592;9.600;2023-04-25T02:25:05;4.30;;;2.83;;
20369;SDS011;10344;47.592;9.600;2023-04-25T02:27:34;3.35;;;2.85;;
20369;SDS011;10344;47.592;9.600;2023-04-25T02:30:00;3.70;;;2.90;;
20369;SDS011;10344;47.592;9.600;2023-04-25T02:32:28;4.07;;;2.80;;
20369;SDS011;10344;47.592;9.600;2023-04-25T02:34:54;3.23;;;2.93;;
20369;SDS011;10344;47.592;9.600;2023-04-25T02:37:23;3.27;;;2.90;;
20369;SDS011;10344;47.592;9.600;2023-04-25T02:39:49;3.03;;;2.72;;
20369;SDS011;10344;47.592;9.600;2023-04-25T02:42:17;3.30;;;3.00;;
20369;SDS011;10344;47.592;9.600;2023-04-25T02:44:44;3.57;;;2.50;;
20369;SDS011;10344;47.592;9.600;2023-04-25T02:47:10;4.63;;;3.38;;
20369;SDS011;10344;47.592;9.600;2023-04-25T02:49:36;4.67;;;3.60;;
20369;SDS011;10344;47.592;9.600;2023-04-25T02:52:01;3.50;;;2.90;;
20369;SDS011;10344;47.592;9.600;2023-04-25T02:54:27;3.10;;;2.80;;
20369;SDS011;10344;47.592;9.600;2023-04-25T02:56:55;3.08;;;2.75;;
20369;SDS011;10344;47.592;9.600;2023-04-25T02:59:25;3.47;;;3.17;;
20369;SDS011;10344;47.592;9.600;2023-04-25T03:01:50;3.17;;;2.88;;
20369;SDS011;10344;47.592;9.600;2023-04-25T03:04:16;3.13;;;2.83;;
20369;SDS011;10344;47.592;9.600;2023-04-25T03:06:43;3.63;;;2.80;;
20369;SDS011;10344;47.592;9.600;2023-04-25T03:09:09;3.40;;;3.10;;
20369;SDS011;10344;47.592;9.600;2023-04-25T03:11:36;3.92;;;2.90;;
20369;SDS011;10344;47.592;9.600;2023-04-25T03:14:03;3.87;;;3.07;;
20369;SDS011;10344;47.592;9.600;2023-04-25T03:16:29;3.30;;;2.70;;
20369;SDS011;10344;47.592;9.600;2023-04-25T03:18:55;4.28;;;2.75;;
20369;SDS011;10344;47.592;9.600;2023-04-25T03:21:24;2.72;;;2.53;;
20369;SDS011;10344;47.592;9.600;2023-04-25T03:23:51;3.80;;;2.83;;
20369;SDS011;10344;47.592;9.600;2023-04-25T03:26:21;4.15;;;2.90;;
20369;SDS011;10344;47.592;9.600;2023-04-25T03:28:47;3.00;;;2.63;;
20369;SDS011;10344;47.592;9.600;2023-04-25T03:31:15;5.05;;;2.95;;
20369;SDS011;10344;47.592;9.600;2023-04-25T03:33:41;4.28;;;2.80;;
20369;SDS011;10344;47.592;9.600;2023-04-25T03:36:06;3.43;;;2.60;;
20369;SDS011;10344;47.592;9.600;2023-04-25T03:38:33;4.72;;;2.80;;
20369;SDS011;10344;47.592;9.600;2023-04-25T03:40:58;3.13;;;2.50;;
20369;SDS011;10344;47.592;9.600;2023-04-25T03:43:26;3.10;;;2.50;;
20369;SDS011;10344;47.592;9.600;2023-04-25T03:45:51;3.53;;;2.70;;
20369;SDS011;10344;47.592;9.600;2023-04-25T03:48:17;4.00;;;2.70;;
20369;SDS011;10344;47.592;9.600;2023-04-25T03:50:44;3.28;;;2.95;;
20369;SDS011;10344;47.592;9.600;2023-04-25T03:53:12;3.23;;;2.67;;
20369;SDS011;10344;47.592;9.600;2023-04-25T03:55:40;3.65;;;2.63;;
20369;SDS011;10344;47.592;9.600;2023-04-25T03:58:06;3.50;;;2.67;;
20369;SDS011;10344;47.592;9.600;2023-04-25T04:00:33;2.75;;;2.45;;
20369;SDS011;10344;47.592;9.600;2023-04-25T04:03:04;3.53;;;2.55;;
20369;SDS011;10344;47.592;9.600;2023-04-25T04:05:31;3.75;;;2.70;;
20369;SDS011;10344;47.592;9.600;2023-04-25T04:07:57;2.90;;;2.30;;
20369;SDS011;10344;47.592;9.600;2023-04-25T04:10:23;3.42;;;2.83;;
20369;SDS011;10344;47.592;9.600;2023-04-25T04:12:51;3.53;;;2.90;;
20369;SDS011;10344;47.592;9.600;2023-04-25T04:15:16;3.30;;;2.53;;
20369;SDS011;10344;47.592;9.600;2023-04-25T04:17:42;3.55;;;2.70;;
20369;SDS011;10344;47.592;9.600;2023-04-25T04:20:11;3.40;;;2.70;;
20369;SDS011;10344;47.592;9.600;2023-04-25T04:22:37;2.53;;;2.27;;
20369;SDS011;10344;47.592;9.600;2023-04-25T04:25:03;3.70;;;2.90;;
20369;SDS011;10344;47.592;9.600;2023-04-25T04:27:30;3.53;;;2.88;;
20369;SDS011;10344;47.592;9.600;2023-04-25T04:29:57;4.25;;;2.83;;
20369;SDS011;10344;47.592;9.600;2023-04-25T04:32:25;3.33;;;3.00;;
20369;SDS011;10344;47.592;9.600;2023-04-25T04:34:54;4.18;;;2.83;;
20369;SDS011;10344;47.592;9.600;2023-04-25T04:37:25;5.53;;;3.00;;
20369;SDS011;10344;47.592;9.600;2023-04-25T04:39:50;5.10;;;3.00;;
20369;SDS011;10344;47.592;9.600;2023-04-25T04:42:20;2.85;;;2.60;;
20369;SDS011;10344;47.592;9.600;2023-04-25T04:44:50;3.55;;;2.90;;
20369;SDS011;10344;47.592;9.600;2023-04-25T04:47:17;3.60;;;3.00;;
20369;SDS011;10344;47.592;9.600;2023-04-25T04:49:48;4.65;;;3.10;;
20369;SDS011;10344;47.592;9.600;2023-04-25T04:52:16;4.60;;;3.10;;
20369;SDS011;10344;47.592;9.600;2023-04-25T04:54:42;4.25;;;2.70;;
20369;SDS011;10344;47.592;9.600;2023-04-25T04:57:07;3.90;;;2.80;;
20369;SDS011;10344;47.592;9.600;2023-04-25T04:59:33;4.07;;;2.70;;
20369;SDS011;10344;47.592;9.600;2023-04-25T05:02:02;4.38;;;2.97;;
20369;SDS011;10344;47.592;9.600;2023-04-25T05:04:30;4.15;;;2.90;;
20369;SDS011;10344;47.592;9.600;2023-04-25T05:06:58;3.70;;;3.00;;
20369;SDS011;10344;47.592;9.600;2023-04-25T05:09:23;3.23;;;2.80;;
20369;SDS011;10344;47.592;9.600;2023-04-25T05:11:52;3.58;;;2.85;;
20369;SDS011;10344;47.592;9.600;2023-04-25T05:14:17;3.63;;;3.00;;
20369;SDS011;10344;47.592;9.600;2023-04-25T05:16:43;3.30;;;2.80;;
20369;SDS011;10344;47.592;9.600;2023-04-25T05:19:09;4.07;;;2.80;;
20369;SDS011;10344;47.592;9.600;2023-04-25T05:21:37;3.72;;;3.20;;
20369;SDS011;10344;47.592;9.600;2023-04-25T05:24:02;4.20;;;2.65;;
20369;SDS011;10344;47.592;9.600;2023-04-25T05:26:31;3.40;;;2.90;;
20369;SDS011;10344;47.592;9.600;2023-04-25T05:28:59;4.53;;;3.13;;
20369;SDS011;10344;47.592;9.600;2023-04-25T05:31:25;3.10;;;2.65;;
20369;SDS011;10344;47.592;9.600;2023-04-25T05:33:51;5.13;;;3.25;;
20369;SDS011;10344;47.592;9.600;2023-04-25T05:36:19;4.93;;;3.30;;
20369;SDS011;10344;47.592;9.600;2023-04-25T05:38:45;5.47;;;3.42;;
20369;SDS011;10344;47.592;9.600;2023-04-25T05:41:10;3.25;;;2.83;;
20369;SDS011;10344;47.592;9.600;2023-04-25T05:43:36;3.50;;;3.00;;
20369;SDS011;10344;47.592;9.600;2023-04-25T05:46:02;5.93;;;3.28;;
20369;SDS011;10344;47.592;9.600;2023-04-25T05:48:27;5.40;;;3.35;;
20369;SDS011;10344;47.592;9.600;2023-04-25T05:50:55;5.05;;;3.60;;
20369;SDS011;10344;47.592;9.600;2023-04-25T05:53:23;5.88;;;3.78;;
20369;SDS011;10344;47.592;9.600;2023-04-25T05:55:49;7.30;;;3.42;;
20369;SDS011;10344;47.592;9.600;2023-04-25T05:58:17;6.40;;;3.70;;
20369;SDS011;10344;47.592;9.600;2023-04-25T06:00:43;5.82;;;3.50;;
20369;SDS011;10344;47.592;9.600;2023-04-25T06:03:09;4.15;;;3.17;;
20369;SDS011;10344;47.592;9.600;2023-04-25T06:05:39;4.55;;;3.13;;
20369;SDS011;10344;47.592;9.600;2023-04-25T06:08:06;4.30;;;3.00;;
20369;SDS011;10344;47.592;9.600;2023-04-25T06:10:31;5.00;;;3.23;;
20369;SDS011;10344;47.592;9.600;2023-04-25T06:13:00;3.77;;;2.60;;
20369;SDS011;10344;47.592;9.600;2023-04-25T06:15:28;3.97;;;2.88;;
20369;SDS011;10344;47.592;9.600;2023-04-25T06:17:54;3.50;;;2.60;;
20369;SDS011;10344;47.592;9.600;2023-04-25T06:20:22;4.43;;;3.05;;
20369;SDS011;10344;47.592;9.600;2023-04-25T06:22:49;3.35;;;3.00;;
20369;SDS011;10344;47.592;9.600;2023-04-25T06:25:16;4.75;;;3.25;;
20369;SDS011;10344;47.592;9.600;2023-04-25T06:27:43;4.50;;;2.90;;
20369;SDS011;10344;47.592;9.600;2023-04-25T06:30:08;3.50;;;3.00;;
20369;SDS011;10344;47.592;9.600;2023-04-25T06:32:36;4.20;;;2.70;;
20369;SDS011;10344;47.592;9.600;2023-04-25T06:35:02;3.87;;;2.60;;
20369;SDS011;10344;47.592;9.600;2023-04-25T06:37:28;3.20;;;2.50;;
20369;SDS011;10344;47.592;9.600;2023-04-25T06:39:54;3.03;;;2.45;;
20369;SDS011;10344;47.592;9.600;2023-04-25T06:42:22;4.63;;;2.47;;
20369;SDS011;10344;47.592;9.600;2023-04-25T06:44:50;3.50;;;2.47;;
20369;SDS011;10344;47.592;9.600;2023-04-25T06:47:18;4.75;;;2.78;;
20369;SDS011;10344;47.592;9.600;2023-04-25T06:49:43;4.50;;;2.30;;
20369;SDS011;10344;47.592;9.600;2023-04-25T06:52:09;2.87;;;2.10;;
20369;SDS011;10344;47.592;9.600;2023-04-25T06:54:35;3.13;;;2.60;;
20369;SDS011;10344;47.592;9.600;2023-04-25T06:57:01;3.00;;;2.30;;
20369;SDS011;10344;47.592;9.600;2023-04-25T06:59:29;4.63;;;2.30;;
20369;SDS011;10344;47.592;9.600;2023-04-25T07:01:57;2.97;;;2.10;;
20369;SDS011;10344;47.592;9.600;2023-04-25T07:04:23;4.45;;;2.97;;
20369;SDS011;10344;47.592;9.600;2023-04-25T07:06:48;3.60;;;2.80;;
20369;SDS011;10344;47.592;9.600;2023-04-25T07:09:16;3.33;;;2.92;;
20369;SDS011;10344;47.592;9.600;2023-04-25T07:11:44;4.50;;;2.85;;
20369;SDS011;10344;47.592;9.600;2023-04-25T07:14:12;4.13;;;2.80;;
20369;SDS011;10344;47.592;9.600;2023-04-25T07:16:38;3.03;;;2.22;;
20369;SDS011;10344;47.592;9.600;2023-04-25T07:19:05;4.03;;;2.35;;
20369;SDS011;10344;47.592;9.600;2023-04-25T07:21:31;6.53;;;2.57;;
20369;SDS011;10344;47.592;9.600;2023-04-25T07:23:57;3.90;;;2.35;;
20369;SDS011;10344;47.592;9.600;2023-04-25T07:26:23;2.90;;;2.20;;
20369;SDS011;10344;47.592;9.600;2023-04-25T07:28:51;2.92;;;2.08;;
20369;SDS011;10344;47.592;9.600;2023-04-25T07:31:17;3.47;;;2.30;;
20369;SDS011;10344;47.592;9.600;2023-04-25T07:33:45;3.95;;;1.90;;
20369;SDS011;10344;47.592;9.600;2023-04-25T07:36:11;3.55;;;2.03;;
20369;SDS011;10344;47.592;9.600;2023-04-25T07:38:37;2.33;;;1.77;;
20369;SDS011;10344;47.592;9.600;2023-04-25T07:41:03;2.50;;;1.70;;
20369;SDS011;10344;47.592;9.600;2023-04-25T07:43:31;3.25;;;2.38;;
20369;SDS011;10344;47.592;9.600;2023-04-25T07:45:59;2.00;;;1.60;;
20369;SDS011;10344;47.592;9.600;2023-04-25T07:48:25;3.10;;;1.80;;
20369;SDS011;10344;47.592;9.600;2023-04-25T07:50:53;2.78;;;2.00;;
20369;SDS011;10344;47.592;9.600;2023-04-25T07:53:18;2.75;;;1.80;;
20369;SDS011;10344;47.592;9.600;2023-04-25T07:55:46;2.67;;;1.98;;
20369;SDS011;10344;47.592;9.600;2023-04-25T07:58:14;3.50;;;2.00;;
20369;SDS011;10344;47.592;9.600;2023-04-25T08:00:46;2.60;;;1.90;;
20369;SDS011;10344;47.592;9.600;2023-04-25T08:03:14;2.50;;;2.10;;
20369;SDS011;10344;47.592;9.600;2023-04-25T08:05:45;3.88;;;2.00;;
20369;SDS011;10344;47.592;9.600;2023-04-25T08:08:11;2.20;;;1.65;;
20369;SDS011;10344;47.592;9.600;2023-04-25T08:10:38;2.90;;;2.00;;
20369;SDS011;10344;47.592;9.600;2023-04-25T08:13:09;2.60;;;1.90;;
20369;SDS011;10344;47.592;9.600;2023-04-25T08:15:34;5.28;;;1.88;;
20369;SDS011;10344;47.592;9.600;2023-04-25T08:18:00;4.13;;;1.85;;
20369;SDS011;10344;47.592;9.600;2023-04-25T08:20:26;2.80;;;1.88;;
20369;SDS011;10344;47.592;9.600;2023-04-25T08:22:51;2.53;;;1.63;;
20369;SDS011;10344;47.592;9.600;2023-04-25T08:25:17;3.00;;;1.67;;
20369;SDS011;10344;47.592;9.600;2023-04-25T08:27:43;3.05;;;1.70;;
20369;SDS011;10344;47.592;9.600;2023-04-25T08:30:08;2.50;;;1.70;;
20369;SDS011;10344;47.592;9.600;2023-04-25T08:32:37;2.13;;;1.63;;
20369;SDS011;10344;47.592;9.600;2023-04-25T08:35:05;2.92;;;1.48;;
20369;SDS011;10344;47.592;9.600;2023-04-25T08:37:34;3.13;;;1.83;;
20369;SDS011;10344;47.592;9.600;2023-04-25T08:39:59;3.17;;;1.85;;
20369;SDS011;10344;47.592;9.600;2023-04-25T08:42:26;4.70;;;1.90;;
20369;SDS011;10344;47.592;9.600;2023-04-25T08:44:53;2.38;;;1.55;;
20369;SDS011;10344;47.592;9.600;2023-04-25T08:47:21;2.45;;;1.73;;
20369;SDS011;10344;47.592;9.600;2023-04-25T08:49:50;2.65;;;1.90;;
20369;SDS011;10344;47.592;9.600;2023-04-25T08:52:21;2.20;;;1.80;;
20369;SDS011;10344;47.592;9.600;2023-04-25T08:54:50;3.70;;;2.20;;
20369;SDS011;10344;47.592;9.600;2023-04-25T08:57:17;3.35;;;1.80;;
20369;SDS011;10344;47.592;9.600;2023-04-25T08:59:44;2.08;;;1.65;;
20369;SDS011;10344;47.592;9.600;2023-04-25T09:02:14;2.47;;;1.90;;
20369;SDS011;10344;47.592;9.600;2023-04-25T09:04:42;2.67;;;1.67;;
20369;SDS011;10344;47.592;9.600;2023-04-25T09:07:09;2.70;;;1.85;;
20369;SDS011;10344;47.592;9.600;2023-04-25T09:09:34;2.67;;;1.40;;
20369;SDS011;10344;47.592;9.600;2023-04-25T09:12:01;2.05;;;1.48;;
20369;SDS011;10344;47.592;9.600;2023-04-25T09:14:27;1.63;;;1.52;;
20369;SDS011;10344;47.592;9.600;2023-04-25T09:16:57;2.50;;;1.50;;
20369;SDS011;10344;47.592;9.600;2023-04-25T09:21:58;1.40;;;1.30;;
20369;SDS011;10344;47.592;9.600;2023-04-25T09:27:21;2.25;;;1.50;;
20369;SDS011;10344;47.592;9.600;2023-04-25T09:30:02;1.70;;;1.40;;
20369;SDS011;10344;47.592;9.600;2023-04-25T09:32:28;2.28;;;1.40;;
20369;SDS011;10344;47.592;9.600;2023-04-25T09:34:57;1.80;;;1.40;;
20369;SDS011;10344;47.592;9.600;2023-04-25T09:37:44;2.30;;;1.55;;
20369;SDS011;10344;47.592;9.600;2023-04-25T09:53:46;1.60;;;1.00;;
20369;SDS011;10344;47.592;9.600;2023-04-25T09:56:17;0.90;;;0.90;;
20369;SDS011;10344;47.592;9.600;2023-04-25T09:58:46;0.90;;;0.90;;
20369;SDS011;10344;47.592;9.600;2023-04-25T10:01:16;1.50;;;1.40;;
20369;SDS011;10344;47.592;9.600;2023-04-25T10:03:42;1.17;;;1.10;;
20369;SDS011;10344;47.592;9.600;2023-04-25T10:06:13;1.30;;;1.20;;
20369;SDS011;10344;47.592;9.600;2023-04-25T10:08:45;1.42;;;1.30;;
20369;SDS011;10344;47.592;9.600;2023-04-25T10:11:20;1.60;;;1.30;;
20369;SDS011;10344;47.592;9.600;2023-04-25T10:13:49;1.43;;;1.10;;
20369;SDS011;10344;47.592;9.600;2023-04-25T10:16:17;1.40;;;1.30;;
20369;SDS011;10344;47.592;9.600;2023-04-25T10:18:43;1.30;;;1.20;;
20369;SDS011;10344;47.592;9.600;2023-04-25T10:21:09;1.50;;;1.40;;
20369;SDS011;10344;47.592;9.600;2023-04-25T10:23:40;1.20;;;1.10;;
20369;SDS011;10344;47.592;9.600;2023-04-25T10:26:07;1.65;;;1.55;;
20369;SDS011;10344;47.592;9.600;2023-04-25T10:31:30;1.50;;;1.40;;
20369;SDS011;10344;47.592;9.600;2023-04-25T10:33:59;1.60;;;1.50;;
20369;SDS011;10344;47.592;9.600;2023-04-25T10:36:26;1.50;;;1.40;;
20369;SDS011;10344;47.592;9.600;2023-04-25T10:38:58;1.88;;;1.73;;
20369;SDS011;10344;47.592;9.600;2023-04-25T10:42:18;1.87;;;1.40;;
20369;SDS011;10344;47.592;9.600;2023-04-25T10:44:26;2.00;;;1.75;;
20369;SDS011;10344;47.592;9.600;2023-04-25T10:46:55;1.65;;;1.40;;
20369;SDS011;10344;47.592;9.600;2023-04-25T10:54:52;2.03;;;1.77;;
20369;SDS011;10344;47.592;9.600;2023-04-25T11:02:31;1.90;;;1.70;;
20369;SDS011;10344;47.592;9.600;2023-04-25T11:05:01;1.85;;;1.65;;
20369;SDS011;10344;47.592;9.600;2023-04-25T11:07:37;2.05;;;1.40;;
20369;SDS011;10344;47.592;9.600;2023-04-25T11:10:07;1.67;;;1.40;;
20369;SDS011;10344;47.592;9.600;2023-04-25T11:12:33;1.70;;;1.40;;
20369;SDS011;10344;47.592;9.600;2023-04-25T11:14:59;1.30;;;1.20;;
20369;SDS011;10344;47.592;9.600;2023-04-25T11:17:29;2.38;;;1.27;;
20369;SDS011;10344;47.592;9.600;2023-04-25T11:19:55;1.10;;;1.10;;
20369;SDS011;10344;47.592;9.600;2023-04-25T11:22:22;1.20;;;1.10;;
20369;SDS011;10344;47.592;9.600;2023-04-25T11:24:55;1.38;;;1.27;;
20369;SDS011;10344;47.592;9.600;2023-04-25T11:27:21;1.00;;;0.90;;
20369;SDS011;10344;47.592;9.600;2023-04-25T11:29:49;1.10;;;1.00;;
20369;SDS011;10344;47.592;9.600;2023-04-25T11:32:17;1.08;;;1.00;;
20369;SDS011;10344;47.592;9.600;2023-04-25T11:34:46;1.50;;;1.00;;
20369;SDS011;10344;47.592;9.600;2023-04-25T11:37:14;0.80;;;0.80;;
20369;SDS011;10344;47.592;9.600;2023-04-25T11:39:43;0.90;;;0.90;;
20369;SDS011;10344;47.592;9.600;2023-04-25T11:42:12;0.80;;;0.80;;
20369;SDS011;10344;47.592;9.600;2023-04-25T11:44:40;0.88;;;0.88;;
20369;SDS011;10344;47.592;9.600;2023-04-25T11:47:06;0.80;;;0.80;;
20369;SDS011;10344;47.592;9.600;2023-04-25T11:49:34;0.70;;;0.70;;
20369;SDS011;10344;47.592;9.600;2023-04-25T11:52:02;0.80;;;0.80;;
20369;SDS011;10344;47.592;9.600;2023-04-25T11:54:32;1.40;;;0.90;;
20369;SDS011;10344;47.592;9.600;2023-04-25T11:57:00;1.00;;;1.00;;
20369;SDS011;10344;47.592;9.600;2023-04-25T11:59:26;1.10;;;1.00;;
20369;SDS011;10344;47.592;9.600;2023-04-25T12:01:52;1.13;;;1.02;;
20369;SDS011;10344;47.592;9.600;2023-04-25T12:04:23;0.80;;;0.80;;
20369;SDS011;10344;47.592;9.600;2023-04-25T12:06:52;0.90;;;0.90;;
20369;SDS011;10344;47.592;9.600;2023-04-25T12:09:20;0.70;;;0.70;;
20369;SDS011;10344;47.592;9.600;2023-04-25T12:11:53;1.10;;;1.00;;
20369;SDS011;10344;47.592;9.600;2023-04-25T12:14:27;1.02;;;0.95;;
20369;SDS011;10344;47.592;9.600;2023-04-25T12:17:00;1.10;;;1.10;;
20369;SDS011;10344;47.592;9.600;2023-04-25T12:19:33;0.80;;;0.80;;
20369;SDS011;10344;47.592;9.600;2023-04-25T12:22:02;1.17;;;1.07;;
20369;SDS011;10344;47.592;9.600;2023-04-25T12:24:28;1.00;;;1.00;;
20369;SDS011;10344;47.592;9.600;2023-04-25T12:27:02;0.80;;;0.80;;
20369;SDS011;10344;47.592;9.600;2023-04-25T12:29:31;0.82;;;0.82;;
20369;SDS011;10344;47.592;9.600;2023-04-25T12:31:58;1.00;;;0.90;;
20369;SDS011;10344;47.592;9.600;2023-04-25T12:34:26;0.80;;;0.80;;
20369;SDS011;10344;47.592;9.600;2023-04-25T12:36:52;0.93;;;0.83;;
20369;SDS011;10344;47.592;9.600;2023-04-25T12:39:19;1.10;;;1.08;;
20369;SDS011;10344;47.592;9.600;2023-04-25T12:41:47;0.95;;;0.90;;
20369;SDS011;10344;47.592;9.600;2023-04-25T12:44:13;0.95;;;0.90;;
20369;SDS011;10344;47.592;9.600;2023-04-25T12:46:40;0.70;;;0.70;;
20369;SDS011;10344;47.592;9.600;2023-04-25T12:49:08;0.70;;;0.70;;
20369;SDS011;10344;47.592;9.600;2023-04-25T12:51:35;1.00;;;1.00;;
20369;SDS011;10344;47.592;9.600;2023-04-25T12:54:04;1.00;;;1.00;;
20369;SDS011;10344;47.592;9.600;2023-04-25T12:56:31;0.82;;;0.80;;
20369;SDS011;10344;47.592;9.600;2023-04-25T12:59:00;1.08;;;0.90;;
20369;SDS011;10344;47.592;9.600;2023-04-25T13:01:26;0.73;;;0.73;;
20369;SDS011;10344;47.592;9.600;2023-04-25T13:03:52;1.03;;;1.00;;
20369;SDS011;10344;47.592;9.600;2023-04-25T13:06:20;1.42;;;0.90;;
20369;SDS011;10344;47.592;9.600;2023-04-25T13:08:46;1.00;;;0.70;;
20369;SDS011;10344;47.592;9.600;2023-04-25T13:11:19;0.85;;;0.85;;
20369;SDS011;10344;47.592;9.600;2023-04-25T13:13:45;1.00;;;1.00;;
20369;SDS011;10344;47.592;9.600;2023-04-25T13:16:11;0.65;;;0.65;;
20369;SDS011;10344;47.592;9.600;2023-04-25T13:18:39;0.77;;;0.77;;
20369;SDS011;10344;47.592;9.600;2023-04-25T13:21:08;0.70;;;0.70;;
20369;SDS011;10344;47.592;9.600;2023-04-25T13:23:35;0.80;;;0.80;;
20369;SDS011;10344;47.592;9.600;2023-04-25T13:26:01;0.80;;;0.80;;
20369;SDS011;10344;47.592;9.600;2023-04-25T13:28:29;0.60;;;0.60;;
20369;SDS011;10344;47.592;9.600;2023-04-25T13:30:57;0.90;;;0.70;;
20369;SDS011;10344;47.592;9.600;2023-04-25T13:33:23;1.05;;;0.80;;
20369;SDS011;10344;47.592;9.600;2023-04-25T13:35:51;0.50;;;0.50;;
20369;SDS011;10344;47.592;9.600;2023-04-25T13:38:21;0.60;;;0.60;;
20369;SDS011;10344;47.592;9.600;2023-04-25T13:40:50;0.60;;;0.60;;
20369;SDS011;10344;47.592;9.600;2023-04-25T13:43:22;0.50;;;0.50;;
20369;SDS011;10344;47.592;9.600;2023-04-25T13:45:48;0.70;;;0.60;;
20369;SDS011;10344;47.592;9.600;2023-04-25T13:48:18;0.30;;;0.30;;
20369;SDS011;10344;47.592;9.600;2023-04-25T13:50:46;0.40;;;0.40;;
20369;SDS011;10344;47.592;9.600;2023-04-25T13:53:14;1.38;;;0.50;;
20369;SDS011;10344;47.592;9.600;2023-04-25T13:55:40;0.30;;;0.30;;
20369;SDS011;10344;47.592;9.600;2023-04-25T13:58:06;0.52;;;0.45;;
20369;SDS011;10344;47.592;9.600;2023-04-25T14:00:35;1.50;;;0.50;;
20369;SDS011;10344;47.592;9.600;2023-04-25T14:03:04;0.40;;;0.40;;
20369;SDS011;10344;47.592;9.600;2023-04-25T14:05:32;1.15;;;0.77;;
20369;SDS011;10344;47.592;9.600;2023-04-25T14:08:03;0.47;;;0.47;;
20369;SDS011;10344;47.592;9.600;2023-04-25T14:10:29;0.68;;;0.68;;
20369;SDS011;10344;47.592;9.600;2023-04-25T14:12:55;1.00;;;0.60;;
20369;SDS011;10344;47.592;9.600;2023-04-25T14:15:23;0.82;;;0.82;;
20369;SDS011;10344;47.592;9.600;2023-04-25T14:17:53;1.25;;;0.90;;
20369;SDS011;10344;47.592;9.600;2023-04-25T14:20:21;0.85;;;0.70;;
20369;SDS011;10344;47.592;9.600;2023-04-25T14:22:49;0.80;;;0.80;;
20369;SDS011;10344;47.592;9.600;2023-04-25T14:25:15;1.15;;;1.00;;
20369;SDS011;10344;47.592;9.600;2023-04-25T14:27:40;0.97;;;0.90;;
20369;SDS011;10344;47.592;9.600;2023-04-25T14:30:12;1.10;;;1.10;;
20369;SDS011;10344;47.592;9.600;2023-04-25T14:32:40;1.17;;;0.90;;
20369;SDS011;10344;47.592;9.600;2023-04-25T14:35:08;1.08;;;1.02;;
20369;SDS011;10344;47.592;9.600;2023-04-25T14:37:34;0.80;;;0.80;;
20369;SDS011;10344;47.592;9.600;2023-04-25T14:40:02;0.90;;;0.90;;
20369;SDS011;10344;47.592;9.600;2023-04-25T14:42:30;0.88;;;0.80;;
20369;SDS011;10344;47.592;9.600;2023-04-25T14:44:59;1.42;;;1.00;;
20369;SDS011;10344;47.592;9.600;2023-04-25T14:47:27;1.00;;;0.90;;
20369;SDS011;10344;47.592;9.600;2023-04-25T14:49:54;1.13;;;1.02;;
20369;SDS011;10344;47.592;9.600;2023-04-25T14:52:21;1.52;;;1.00;;
20369;SDS011;10344;47.592;9.600;2023-04-25T14:55:27;1.38;;;1.00;;
20369;SDS011;10344;47.592;9.600;2023-04-25T14:57:55;1.60;;;1.00;;
20369;SDS011;10344;47.592;9.600;2023-04-25T15:00:21;1.17;;;1.00;;
20369;SDS011;10344;47.592;9.600;2023-04-25T15:02:48;0.90;;;0.90;;
20369;SDS011;10344;47.592;9.600;2023-04-25T15:05:18;0.87;;;0.87;;
20369;SDS011;10344;47.592;9.600;2023-04-25T15:07:44;1.80;;;1.20;;
20369;SDS011;10344;47.592;9.600;2023-04-25T15:10:10;1.42;;;1.33;;
20369;SDS011;10344;47.592;9.600;2023-04-25T15:12:41;1.95;;;1.40;;
20369;SDS011;10344;47.592;9.600;2023-04-25T15:15:07;2.10;;;1.38;;
20369;SDS011;10344;47.592;9.600;2023-04-25T15:17:43;1.75;;;1.42;;
20369;SDS011;10344;47.592;9.600;2023-04-25T15:20:12;1.50;;;1.40;;
20369;SDS011;10344;47.592;9.600;2023-04-25T15:22:39;2.17;;;1.40;;